createdAt,value
2018-07-24T00:02:52.092Z,21.50
2018-07-24T00:06:55.422Z,21.50
2018-07-24T00:10:58.882Z,21.40
2018-07-24T00:15:02.250Z,21.40
2018-07-24T00:19:05.622Z,21.30
2018-07-24T00:23:08.930Z,21.20
2018-07-24T00:27:12.895Z,21.20
2018-07-24T00:31:16.328Z,21.10
2018-07-24T00:35:19.659Z,21.00
2018-07-24T00:39:23.008Z,21.00
2018-07-24T00:43:26.331Z,20.90
2018-07-24T00:47:29.769Z,20.90
2018-07-24T00:51:33.104Z,20.80
2018-07-24T00:55:36.427Z,20.80
2018-07-24T00:59:39.788Z,20.80
2018-07-24T01:07:46.402Z,20.70
2018-07-24T01:11:49.722Z,20.60
2018-07-24T01:15:53.068Z,20.50
2018-07-24T01:19:56.418Z,20.40
2018-07-24T01:23:59.802Z,20.30
2018-07-24T01:32:06.317Z,20.20
2018-07-24T01:36:09.682Z,20.10
2018-07-24T01:40:13.032Z,20.00
2018-07-24T01:44:16.343Z,20.00
2018-07-24T01:48:19.671Z,19.90
2018-07-24T01:52:23.013Z,19.80
2018-07-24T01:56:26.336Z,19.80
2018-07-24T02:00:29.666Z,19.70
2018-07-24T02:04:32.968Z,19.70
2018-07-24T02:08:36.319Z,19.70
2018-07-24T02:12:39.775Z,19.60
2018-07-24T02:16:43.103Z,19.60
2018-07-24T02:20:46.468Z,19.50
2018-07-24T02:24:49.820Z,19.50
2018-07-24T02:28:53.164Z,19.40
2018-07-24T02:32:56.508Z,19.40
2018-07-24T02:36:59.835Z,19.40
2018-07-24T02:41:03.183Z,19.40
2018-07-24T02:45:07.358Z,19.30
2018-07-24T02:49:10.779Z,19.30
2018-07-24T02:53:14.131Z,19.20
2018-07-24T02:57:17.459Z,19.20
2018-07-24T03:01:20.797Z,19.20
2018-07-24T03:05:26.234Z,19.10
2018-07-24T03:09:29.564Z,19.10
2018-07-24T03:13:33.788Z,19.00
2018-07-24T03:17:38.559Z,19.00
2018-07-24T03:21:42.503Z,19.00
2018-07-24T03:25:45.847Z,18.90
2018-07-24T03:29:49.164Z,18.90
2018-07-24T03:33:52.509Z,18.90
2018-07-24T03:37:55.860Z,18.80
2018-07-24T03:41:59.205Z,18.80
2018-07-24T03:46:02.559Z,18.80
2018-07-24T03:50:05.900Z,18.70
2018-07-24T03:54:09.238Z,18.70
2018-07-24T03:58:12.641Z,18.70
2018-07-24T04:02:16.034Z,18.70
2018-07-24T04:06:19.359Z,18.70
2018-07-24T04:10:23.134Z,18.60
2018-07-24T04:14:26.464Z,18.60
2018-07-24T04:18:34.044Z,18.60
2018-07-24T04:22:37.399Z,18.60
2018-07-24T04:26:40.724Z,18.60
2018-07-24T04:30:44.090Z,18.60
2018-07-24T04:34:48.372Z,18.50
2018-07-24T04:38:51.696Z,18.50
2018-07-24T04:42:55.052Z,18.50
2018-07-24T04:46:58.587Z,18.60
2018-07-24T04:51:01.977Z,18.60
2018-07-24T04:55:05.545Z,18.60
2018-07-24T04:59:09.156Z,18.60
2018-07-24T05:03:12.581Z,18.70
2018-07-24T05:07:15.922Z,18.70
2018-07-24T05:11:20.173Z,18.80
2018-07-24T05:15:23.536Z,18.90
2018-07-24T05:19:26.895Z,18.90
2018-07-24T05:23:30.297Z,19.00
2018-07-24T05:27:33.603Z,19.10
2018-07-24T05:31:36.979Z,19.10
2018-07-24T05:35:40.364Z,19.20
2018-07-24T05:39:43.725Z,19.30
2018-07-24T05:43:47.083Z,19.40
2018-07-24T05:47:50.492Z,19.50
2018-07-24T05:51:53.821Z,19.60
2018-07-24T05:56:01.403Z,19.70
2018-07-24T06:00:05.384Z,19.70
2018-07-24T06:04:08.707Z,19.80
2018-07-24T06:08:12.027Z,19.90
2018-07-24T06:12:15.384Z,20.00
2018-07-24T06:16:18.739Z,20.20
2018-07-24T06:20:22.635Z,20.30
2018-07-24T06:28:29.096Z,20.50
2018-07-24T06:32:32.484Z,20.60
2018-07-24T06:36:35.824Z,20.80
2018-07-24T06:40:39.216Z,20.90
2018-07-24T06:44:42.648Z,21.10
2018-07-24T06:48:46.062Z,21.30
2018-07-24T06:52:49.496Z,21.40
2018-07-24T06:56:52.938Z,21.50
2018-07-24T07:00:56.484Z,21.70
2018-07-24T07:04:59.887Z,21.90
2018-07-24T07:09:05.927Z,22.00
2018-07-24T07:13:09.283Z,22.20
2018-07-24T07:17:12.664Z,22.40
2018-07-24T07:21:16.067Z,22.50
2018-07-24T07:25:19.601Z,22.70
2018-07-24T07:29:22.993Z,22.80
2018-07-24T07:33:26.403Z,23.00
2018-07-24T07:37:29.804Z,23.20
2018-07-24T07:41:57.456Z,23.30
2018-07-24T07:50:04.247Z,23.70
2018-07-24T07:54:08.345Z,23.90
2018-07-24T07:58:11.663Z,24.20
2018-07-24T08:02:14.984Z,24.20
2018-07-24T08:06:18.472Z,24.40
2018-07-24T08:10:22.143Z,24.60
2018-07-24T08:14:25.558Z,24.70
2018-07-24T08:18:28.927Z,24.90
2018-07-24T08:22:32.451Z,25.00
2018-07-24T08:26:36.015Z,25.30
2018-07-24T08:30:39.503Z,25.40
2018-07-24T08:34:43.071Z,25.60
2018-07-24T08:38:46.633Z,25.70
2018-07-24T08:46:53.393Z,26.10
2018-07-24T08:50:57.373Z,26.30
2018-07-24T08:55:00.979Z,26.40
2018-07-24T08:59:07.191Z,26.60
2018-07-24T09:03:10.644Z,26.80
2018-07-24T09:07:14.001Z,27.00
2018-07-24T09:11:21.712Z,27.20
2018-07-24T09:15:25.120Z,27.40
2018-07-24T09:19:28.609Z,27.60
2018-07-24T09:28:08.141Z,28.10
2018-07-24T09:32:18.068Z,28.30
2018-07-24T09:40:53.136Z,28.80
2018-07-24T09:50:46.548Z,29.30
2018-07-24T09:54:58.112Z,29.60
2018-07-24T10:03:09.554Z,30.20
2018-07-24T10:07:12.890Z,30.50
2018-07-24T10:11:16.359Z,30.60
2018-07-24T10:15:19.696Z,30.90
2018-07-24T10:19:23.035Z,31.10
2018-07-24T10:23:26.386Z,31.30
2018-07-24T10:27:29.759Z,31.40
2018-07-24T10:31:33.223Z,31.60
2018-07-24T10:35:37.508Z,31.70
2018-07-24T10:39:41.496Z,31.90
2018-07-24T10:43:44.880Z,32.10
2018-07-24T10:47:48.267Z,32.20
2018-07-24T10:51:51.659Z,32.40
2018-07-24T10:55:55.048Z,32.50
2018-07-24T10:59:58.391Z,32.50
2018-07-24T11:04:01.806Z,32.60
2018-07-24T11:08:05.336Z,32.70
2018-07-24T11:16:11.869Z,33.10
2018-07-24T11:20:15.376Z,33.20
2018-07-24T11:24:18.842Z,33.30
2018-07-24T11:32:26.578Z,33.60
2018-07-24T11:36:30.296Z,33.80
2018-07-24T11:40:33.660Z,33.90
2018-07-24T11:44:37.040Z,34.10
2018-07-24T11:48:40.478Z,34.40
2018-07-24T11:52:43.947Z,34.40
2018-07-24T11:56:47.279Z,34.60
2018-07-24T12:01:13.687Z,34.70
2018-07-24T12:05:43.286Z,34.80
2018-07-24T12:09:49.341Z,34.90
2018-07-24T12:13:52.836Z,35.00
2018-07-24T12:17:56.183Z,35.10
2018-07-24T12:21:59.545Z,35.10
2018-07-24T12:26:02.861Z,35.20
2018-07-24T12:30:10.011Z,35.30
2018-07-24T12:34:13.339Z,35.50
2018-07-24T12:38:16.668Z,35.50
2018-07-24T12:42:20.025Z,35.40
2018-07-24T12:46:23.384Z,35.50
2018-07-24T12:54:29.919Z,35.70
2018-07-24T12:58:33.242Z,35.70
2018-07-24T13:02:36.576Z,35.80
2018-07-24T13:06:39.950Z,35.70
2018-07-24T13:10:43.401Z,35.80
2018-07-24T13:14:46.744Z,35.90
2018-07-24T13:18:50.088Z,36.00
2018-07-24T13:22:53.407Z,36.00
2018-07-24T13:26:56.749Z,36.10
2018-07-24T13:31:00.068Z,36.20
2018-07-24T13:35:04.199Z,36.10
2018-07-24T13:39:09.893Z,36.10
2018-07-24T13:43:13.242Z,36.10
2018-07-24T13:47:16.572Z,36.00
2018-07-24T13:51:19.956Z,36.10
2018-07-24T13:55:23.300Z,36.10
2018-07-24T13:59:26.668Z,36.10
2018-07-24T14:03:30.015Z,36.10
2018-07-24T14:07:33.349Z,36.20
2018-07-24T14:11:36.828Z,36.30
2018-07-24T14:15:40.160Z,36.30
2018-07-24T14:19:43.526Z,36.30
2018-07-24T14:23:46.890Z,36.30
2018-07-24T14:27:50.228Z,36.40
2018-07-24T14:31:53.548Z,36.40
2018-07-24T14:35:56.896Z,36.50
2018-07-24T14:40:00.236Z,36.60
2018-07-24T14:44:03.580Z,36.60
2018-07-24T14:48:06.972Z,36.60
2018-07-24T14:52:11.111Z,36.60
2018-07-24T14:56:14.418Z,36.60
2018-07-24T15:00:17.751Z,36.70
2018-07-24T15:04:21.092Z,36.70
2018-07-24T15:08:24.430Z,36.60
2018-07-24T15:12:27.742Z,36.70
2018-07-24T15:16:31.097Z,36.70
2018-07-24T15:20:34.452Z,36.60
2018-07-24T15:24:37.799Z,36.60
2018-07-24T15:28:41.165Z,36.60
2018-07-24T15:32:44.486Z,36.60
2018-07-24T15:36:47.815Z,36.60
2018-07-24T15:40:51.150Z,36.70
2018-07-24T15:44:54.504Z,36.80
2018-07-24T15:48:57.847Z,36.90
2018-07-24T15:53:01.170Z,37.10
2018-07-24T15:57:04.509Z,37.30
2018-07-24T16:01:07.835Z,37.50
2018-07-24T16:05:11.209Z,37.70
2018-07-24T16:09:14.550Z,38.00
2018-07-24T16:13:18.063Z,38.10
2018-07-24T16:17:28.126Z,38.40
2018-07-24T16:21:31.685Z,38.70
2018-07-24T16:25:35.104Z,38.80
2018-07-24T16:29:38.653Z,39.00
2018-07-24T16:33:42.016Z,39.20
2018-07-24T16:37:45.352Z,39.30
2018-07-24T16:41:48.722Z,39.30
2018-07-24T16:45:52.051Z,39.20
2018-07-24T16:49:55.385Z,39.10
2018-07-24T16:53:58.765Z,39.00
2018-07-24T16:58:02.182Z,38.80
2018-07-24T17:02:05.499Z,38.50
2018-07-24T17:06:08.866Z,38.20
2018-07-24T17:10:12.224Z,38.00
2018-07-24T17:14:15.600Z,37.70
2018-07-24T17:18:18.955Z,37.50
2018-07-24T17:22:22.304Z,37.30
2018-07-24T17:26:25.899Z,37.10
2018-07-24T17:30:29.152Z,36.90
2018-07-24T17:34:32.514Z,36.60
2018-07-24T17:38:35.896Z,36.40
2018-07-24T17:42:39.223Z,36.20
2018-07-24T17:46:42.553Z,35.90
2018-07-24T17:50:46.085Z,35.80
2018-07-24T17:55:19.381Z,35.50
2018-07-24T17:59:23.072Z,35.40
2018-07-24T18:03:26.410Z,35.20
2018-07-24T18:07:38.283Z,35.00
2018-07-24T18:11:47.073Z,34.80
2018-07-24T18:15:50.436Z,34.60
2018-07-24T18:19:53.804Z,34.40
2018-07-24T18:23:57.144Z,34.20
2018-07-24T18:28:00.467Z,34.10
2018-07-24T18:32:04.482Z,33.90
2018-07-24T18:36:07.855Z,33.70
2018-07-24T18:40:12.016Z,33.60
2018-07-24T18:44:15.385Z,33.30
2018-07-24T18:48:18.727Z,33.20
2018-07-24T18:52:22.067Z,33.00
2018-07-24T18:56:25.442Z,32.80
2018-07-24T19:00:28.789Z,32.60
2018-07-24T19:04:32.171Z,32.50
2018-07-24T19:08:35.561Z,32.30
2018-07-24T19:12:38.920Z,32.10
2018-07-24T19:16:42.278Z,32.00
2018-07-24T19:20:45.635Z,31.80
2018-07-24T19:24:49.046Z,31.60
2018-07-24T19:28:52.552Z,31.40
2018-07-24T19:32:55.888Z,31.20
2018-07-24T19:36:59.252Z,31.10
2018-07-24T19:41:02.621Z,30.90
2018-07-24T19:45:06.220Z,30.70
2018-07-24T19:49:09.572Z,30.50
2018-07-24T19:53:13.944Z,30.40
2018-07-24T19:57:17.288Z,30.20
2018-07-24T20:01:20.740Z,30.00
2018-07-24T20:05:24.074Z,29.90
2018-07-24T20:09:27.451Z,29.70
2018-07-24T20:13:30.799Z,29.60
2018-07-24T20:17:34.147Z,29.40
2018-07-24T20:21:39.181Z,29.20
2018-07-24T20:25:42.547Z,29.10
2018-07-24T20:29:45.987Z,29.00
2018-07-24T20:33:49.355Z,28.80
2018-07-24T20:41:55.909Z,28.60
2018-07-24T20:45:59.349Z,28.50
2018-07-24T20:50:02.747Z,28.40
2018-07-24T20:54:06.156Z,28.20
2018-07-24T20:58:09.535Z,28.10
2018-07-24T21:02:12.927Z,28.00
2018-07-24T21:06:16.313Z,27.90
2018-07-24T21:10:20.285Z,27.70
2018-07-24T21:14:23.666Z,27.60
2018-07-24T21:18:27.056Z,27.40
2018-07-24T21:22:30.456Z,27.30
2018-07-24T21:26:33.865Z,27.20
2018-07-24T21:30:37.303Z,27.10
2018-07-24T21:34:40.760Z,27.00
2018-07-24T21:38:44.431Z,26.90
2018-07-24T21:42:47.831Z,26.80
2018-07-24T21:46:51.196Z,26.70
2018-07-24T21:50:54.660Z,26.60
2018-07-24T21:54:58.249Z,26.50
2018-07-24T21:59:01.647Z,26.40
2018-07-24T22:03:07.021Z,26.30
2018-07-24T22:07:10.404Z,26.20
2018-07-24T22:11:14.052Z,26.10
2018-07-24T22:19:35.356Z,25.90
2018-07-24T22:23:45.428Z,25.80
2018-07-24T22:27:48.802Z,25.80
2018-07-24T22:31:52.383Z,25.60
2018-07-24T22:35:55.758Z,25.50
2018-07-24T22:39:59.122Z,25.50
2018-07-24T22:44:04.871Z,25.30
2018-07-24T22:48:08.273Z,25.30
2018-07-24T22:52:11.653Z,25.20
2018-07-24T23:00:18.159Z,25.00
2018-07-24T23:04:21.585Z,24.90
2018-07-24T23:08:24.968Z,24.80
2018-07-24T23:12:28.328Z,24.80
2018-07-24T23:16:31.717Z,24.70
2018-07-24T23:20:35.157Z,24.60
2018-07-24T23:24:38.521Z,24.60
2018-07-24T23:28:41.899Z,24.50
2018-07-24T23:32:45.283Z,24.40
2018-07-24T23:36:48.699Z,24.30
2018-07-24T23:40:52.056Z,24.30
2018-07-24T23:44:55.416Z,24.20
2018-07-24T23:48:58.757Z,24.10
2018-07-24T23:53:02.074Z,24.00
2018-07-24T23:57:05.442Z,23.90
